createdAt,value
2023-05-10T00:01:56.428Z,14.50
2023-05-10T00:04:28.378Z,14.47
2023-05-10T00:06:56.220Z,14.46
2023-05-10T00:09:23.952Z,14.45
2023-05-10T00:11:51.732Z,14.47
2023-05-10T00:14:19.748Z,14.44
2023-05-10T00:16:47.564Z,14.42
2023-05-10T00:19:15.394Z,14.45
2023-05-10T00:21:44.954Z,14.42
2023-05-10T00:24:12.719Z,14.40
2023-05-10T00:26:40.471Z,14.39
2023-05-10T00:29:08.190Z,14.41
2023-05-10T00:31:36.039Z,14.40
2023-05-10T00:34:03.822Z,14.40
2023-05-10T00:36:32.229Z,14.40
2023-05-10T00:39:01.747Z,14.40
2023-05-10T00:41:29.563Z,14.35
2023-05-10T00:43:57.267Z,14.32
2023-05-10T00:46:25.441Z,14.34
2023-05-10T00:48:53.750Z,14.31
2023-05-10T00:51:21.765Z,14.30
2023-05-10T00:53:51.542Z,14.26
2023-05-10T00:56:21.555Z,14.27
2023-05-10T00:58:49.192Z,14.24
2023-05-10T01:01:17.025Z,14.25
2023-05-10T01:03:45.063Z,14.20
2023-05-10T01:06:12.809Z,14.18
2023-05-10T01:08:41.145Z,14.13
2023-05-10T01:11:09.044Z,14.15
2023-05-10T01:13:40.861Z,14.15
2023-05-10T01:16:09.335Z,14.15
2023-05-10T01:18:40.265Z,14.17
2023-05-10T01:21:19.388Z,14.17
2023-05-10T01:24:17.227Z,14.15
2023-05-10T01:27:04.408Z,14.13
2023-05-10T01:30:14.803Z,14.17
2023-05-10T01:32:52.581Z,14.18
2023-05-10T01:35:28.715Z,14.17
2023-05-10T01:38:05.958Z,14.13
2023-05-10T01:40:41.577Z,14.15
2023-05-10T01:43:19.686Z,14.13
2023-05-10T01:45:52.868Z,14.11
2023-05-10T01:48:23.390Z,14.10
2023-05-10T01:50:54.005Z,14.11
2023-05-10T01:53:23.551Z,14.14
2023-05-10T01:55:54.595Z,14.12
2023-05-10T01:58:27.121Z,14.14
2023-05-10T02:00:55.935Z,14.11
2023-05-10T02:03:28.262Z,14.13
2023-05-10T02:05:58.106Z,14.12
2023-05-10T02:08:27.003Z,14.11
2023-05-10T02:10:57.863Z,14.07
2023-05-10T02:13:27.187Z,14.07
2023-05-10T02:15:56.983Z,14.03
2023-05-10T02:18:29.283Z,14.01
2023-05-10T02:20:58.682Z,13.95
2023-05-10T02:23:28.322Z,13.98
2023-05-10T02:25:58.399Z,14.01
2023-05-10T02:28:28.644Z,13.98
2023-05-10T02:30:57.395Z,14.01
2023-05-10T02:33:27.781Z,13.99
2023-05-10T02:35:56.502Z,14.02
2023-05-10T02:38:26.554Z,14.06
2023-05-10T02:40:55.831Z,14.07
2023-05-10T02:43:25.378Z,14.07
2023-05-10T02:45:53.202Z,14.08
2023-05-10T02:48:20.951Z,14.06
2023-05-10T02:50:52.745Z,14.01
2023-05-10T02:53:24.865Z,14.03
2023-05-10T02:55:56.970Z,14.02
2023-05-10T02:58:24.733Z,14.03
2023-05-10T03:00:52.510Z,14.01
2023-05-10T03:03:22.074Z,13.99
2023-05-10T03:05:51.202Z,13.93
2023-05-10T03:08:19.089Z,13.94
2023-05-10T03:10:56.684Z,13.93
2023-05-10T03:13:36.329Z,13.92
2023-05-10T03:16:10.634Z,13.93
2023-05-10T03:18:46.288Z,13.92
2023-05-10T03:21:17.383Z,13.90
2023-05-10T03:23:49.843Z,13.87
2023-05-10T03:26:22.800Z,13.83
2023-05-10T03:28:51.927Z,13.83
2023-05-10T03:31:20.160Z,13.85
2023-05-10T03:33:49.443Z,13.80
2023-05-10T03:36:18.792Z,13.82
2023-05-10T03:38:46.702Z,13.84
2023-05-10T03:41:14.976Z,13.84
2023-05-10T03:43:42.881Z,13.86
2023-05-10T03:46:10.618Z,13.87
2023-05-10T03:48:38.423Z,13.84
2023-05-10T03:51:06.231Z,13.81
2023-05-10T03:53:35.327Z,13.81
2023-05-10T03:56:03.028Z,13.79
2023-05-10T03:58:30.733Z,13.75
2023-05-10T04:00:58.475Z,13.72
2023-05-10T04:03:26.886Z,13.72
2023-05-10T04:06:02.690Z,13.74
2023-05-10T04:08:30.591Z,13.73
2023-05-10T04:11:08.819Z,13.74
2023-05-10T04:13:36.654Z,13.78
2023-05-10T04:16:04.733Z,13.80
2023-05-10T04:18:32.791Z,13.82
2023-05-10T04:21:00.634Z,13.79
2023-05-10T04:23:29.010Z,13.80
2023-05-10T04:26:01.990Z,13.78
2023-05-10T04:28:31.205Z,13.75
2023-05-10T04:31:03.601Z,13.78
2023-05-10T04:33:31.494Z,13.78
2023-05-10T04:35:59.511Z,13.76
2023-05-10T04:38:27.902Z,13.73
2023-05-10T04:40:55.786Z,13.69
2023-05-10T04:43:23.691Z,13.68
2023-05-10T04:45:52.811Z,13.65
2023-05-10T04:48:20.719Z,13.64
2023-05-10T04:50:48.522Z,13.67
2023-05-10T04:53:17.202Z,13.66
2023-05-10T04:55:45.281Z,13.68
2023-05-10T04:58:13.003Z,13.73
2023-05-10T05:00:40.957Z,13.72
2023-05-10T05:03:11.378Z,13.74
2023-05-10T05:05:39.115Z,13.75
2023-05-10T05:08:07.846Z,13.75
2023-05-10T05:10:35.933Z,13.80
2023-05-10T05:13:03.787Z,13.83
2023-05-10T05:15:32.016Z,13.88
2023-05-10T05:17:59.840Z,13.92
2023-05-10T05:20:29.054Z,13.97
2023-05-10T05:22:56.803Z,13.98
2023-05-10T05:25:24.807Z,14.00
2023-05-10T05:27:52.541Z,14.04
2023-05-10T05:30:20.380Z,14.04
2023-05-10T05:32:48.420Z,14.08
2023-05-10T05:35:16.549Z,14.10
2023-05-10T05:37:45.768Z,14.16
2023-05-10T05:40:14.985Z,14.19
2023-05-10T05:42:42.920Z,14.23
2023-05-10T05:45:14.065Z,14.28
2023-05-10T05:47:42.190Z,14.35
2023-05-10T05:50:11.200Z,14.41
2023-05-10T05:52:39.237Z,14.48
2023-05-10T05:55:09.300Z,14.54
2023-05-10T05:57:37.318Z,14.62
2023-05-10T06:00:06.167Z,14.67
2023-05-10T06:02:34.192Z,14.73
2023-05-10T06:05:02.209Z,14.79
2023-05-10T06:07:30.434Z,14.83
2023-05-10T06:09:58.349Z,14.88
2023-05-10T06:12:27.672Z,14.93
2023-05-10T06:14:55.449Z,14.99
2023-05-10T06:17:23.199Z,15.01
2023-05-10T06:19:51.168Z,15.03
2023-05-10T06:22:18.861Z,15.08
2023-05-10T06:24:46.516Z,15.13
2023-05-10T06:27:14.338Z,15.21
2023-05-10T06:29:44.224Z,15.27
2023-05-10T06:32:12.029Z,15.31
2023-05-10T06:34:39.778Z,15.36
2023-05-10T06:37:07.580Z,15.36
2023-05-10T06:39:35.357Z,15.40
2023-05-10T06:42:05.550Z,15.39
2023-05-10T06:44:33.349Z,15.38
2023-05-10T06:47:02.554Z,15.39
2023-05-10T06:49:30.584Z,15.37
2023-05-10T06:51:58.597Z,15.44
2023-05-10T06:54:26.565Z,15.46
2023-05-10T06:56:55.089Z,15.47
2023-05-10T06:59:23.044Z,15.47
2023-05-10T07:01:50.961Z,15.47
2023-05-10T07:04:20.287Z,15.48
2023-05-10T07:06:48.402Z,15.49
2023-05-10T07:09:16.717Z,15.52
2023-05-10T07:11:44.620Z,15.54
2023-05-10T07:14:12.728Z,15.54
2023-05-10T07:16:41.851Z,15.59
2023-05-10T07:19:10.067Z,15.62
2023-05-10T07:21:41.329Z,15.69
2023-05-10T07:24:09.096Z,15.78
2023-05-10T07:26:36.979Z,15.84
2023-05-10T07:29:04.982Z,15.90
2023-05-10T07:31:32.884Z,15.94
2023-05-10T07:34:00.877Z,15.93
2023-05-10T07:36:28.952Z,15.93
2023-05-10T07:38:58.812Z,15.99
2023-05-10T07:41:26.949Z,16.00
2023-05-10T07:43:54.753Z,15.99
2023-05-10T07:46:22.696Z,16.04
2023-05-10T07:48:50.514Z,16.10
2023-05-10T07:51:18.344Z,16.12
2023-05-10T07:53:46.216Z,16.18
2023-05-10T07:56:28.198Z,16.28
2023-05-10T07:58:56.351Z,16.35
2023-05-10T08:01:24.485Z,16.48
2023-05-10T08:03:54.301Z,16.57
2023-05-10T08:06:23.231Z,16.68
2023-05-10T08:08:51.801Z,16.73
2023-05-10T08:11:19.931Z,16.80
2023-05-10T08:13:49.961Z,16.85
2023-05-10T08:16:18.248Z,16.91
2023-05-10T08:18:47.798Z,16.96
2023-05-10T08:21:16.593Z,16.98
2023-05-10T08:23:45.225Z,16.96
2023-05-10T08:26:13.431Z,16.95
2023-05-10T08:28:41.248Z,16.84
2023-05-10T08:31:10.510Z,16.74
2023-05-10T08:33:38.336Z,16.62
2023-05-10T08:36:06.385Z,16.52
2023-05-10T08:38:34.752Z,16.50
2023-05-10T08:41:04.548Z,16.48
2023-05-10T08:43:33.619Z,16.42
2023-05-10T08:46:03.908Z,16.43
2023-05-10T08:48:36.194Z,16.50
2023-05-10T08:51:05.868Z,16.58
2023-05-10T08:53:36.560Z,16.66
2023-05-10T08:56:05.235Z,16.78
2023-05-10T08:58:33.340Z,16.79
2023-05-10T09:01:01.723Z,16.80
2023-05-10T09:03:29.673Z,16.84
2023-05-10T09:05:59.061Z,16.94
2023-05-10T09:08:27.854Z,17.02
2023-05-10T09:10:57.507Z,17.02
2023-05-10T09:13:27.208Z,17.04
2023-05-10T09:15:55.523Z,17.00
2023-05-10T09:18:23.625Z,16.98
2023-05-10T09:20:52.068Z,16.95
2023-05-10T09:23:21.159Z,16.92
2023-05-10T09:25:49.088Z,16.86
2023-05-10T09:28:16.952Z,16.85
2023-05-10T09:30:44.859Z,16.82
2023-05-10T09:33:12.774Z,16.84
2023-05-10T09:35:41.306Z,16.77
2023-05-10T09:38:09.373Z,16.72
2023-05-10T09:40:38.932Z,16.62
2023-05-10T09:43:09.572Z,16.59
2023-05-10T09:45:39.143Z,16.57
2023-05-10T09:48:08.276Z,16.59
2023-05-10T09:50:36.148Z,16.58
2023-05-10T09:53:05.434Z,16.40
2023-05-10T09:55:45.244Z,16.30
2023-05-10T09:58:13.565Z,16.16
2023-05-10T10:00:43.069Z,16.18
2023-05-10T10:03:15.570Z,16.07
2023-05-10T10:05:44.409Z,15.93
2023-05-10T10:08:12.890Z,15.87
2023-05-10T10:10:42.364Z,15.77
2023-05-10T10:13:10.379Z,15.79
2023-05-10T10:15:38.995Z,15.80
2023-05-10T10:18:07.543Z,15.90
2023-05-10T10:20:35.830Z,16.00
2023-05-10T10:23:04.258Z,16.10
2023-05-10T10:25:32.036Z,16.32
2023-05-10T10:28:15.234Z,16.51
2023-05-10T10:30:45.282Z,16.73
2023-05-10T10:33:35.977Z,17.06
2023-05-10T10:36:05.393Z,17.29
2023-05-10T10:38:58.841Z,17.53
2023-05-10T10:41:34.390Z,17.73
2023-05-10T10:44:35.450Z,17.92
2023-05-10T10:47:28.375Z,18.03
2023-05-10T10:50:04.592Z,17.99
2023-05-10T10:52:36.619Z,17.88
2023-05-10T10:55:07.615Z,17.71
2023-05-10T10:57:45.709Z,17.62
2023-05-10T11:00:29.623Z,17.51
2023-05-10T11:03:00.182Z,17.36
2023-05-10T11:05:39.822Z,17.29
2023-05-10T11:08:28.583Z,17.24
2023-05-10T11:11:07.908Z,17.20
2023-05-10T11:13:39.500Z,17.14
2023-05-10T11:16:20.236Z,17.05
2023-05-10T11:19:04.895Z,17.05
2023-05-10T11:21:33.633Z,17.07
2023-05-10T11:24:06.516Z,17.11
2023-05-10T11:26:36.817Z,17.18
2023-05-10T11:29:05.979Z,17.34
2023-05-10T11:31:35.494Z,17.44
2023-05-10T11:34:03.729Z,17.63
2023-05-10T11:36:35.150Z,17.81
2023-05-10T11:39:02.989Z,18.00
2023-05-10T11:41:32.487Z,18.10
2023-05-10T11:44:00.738Z,18.26
2023-05-10T11:46:29.996Z,18.49
2023-05-10T11:49:02.962Z,18.69
2023-05-10T11:51:31.249Z,18.71
2023-05-10T11:53:59.206Z,18.71
2023-05-10T11:56:28.010Z,18.57
2023-05-10T11:58:57.635Z,18.49
2023-05-10T12:01:26.107Z,18.46
2023-05-10T12:03:55.363Z,18.55
2023-05-10T12:06:24.838Z,18.61
2023-05-10T12:08:54.710Z,18.64
2023-05-10T12:11:23.438Z,18.69
2023-05-10T12:13:51.181Z,18.64
2023-05-10T12:16:20.283Z,18.72
2023-05-10T12:18:50.403Z,18.60
2023-05-10T12:21:18.399Z,18.48
2023-05-10T12:23:49.337Z,18.48
2023-05-10T12:26:17.354Z,18.38
2023-05-10T12:28:45.401Z,18.29
2023-05-10T12:31:13.157Z,18.22
2023-05-10T12:33:43.372Z,18.09
2023-05-10T12:36:11.871Z,18.14
2023-05-10T12:38:44.097Z,18.01
2023-05-10T12:41:15.390Z,18.06
2023-05-10T12:43:43.925Z,18.13
2023-05-10T12:46:12.834Z,18.03
2023-05-10T12:48:41.994Z,17.97
2023-05-10T12:51:10.592Z,17.94
2023-05-10T12:53:38.521Z,18.00
2023-05-10T12:56:06.922Z,18.05
2023-05-10T12:58:36.421Z,18.18
2023-05-10T13:01:05.851Z,18.22
2023-05-10T13:03:33.722Z,18.26
2023-05-10T13:06:01.566Z,18.37
2023-05-10T13:08:34.155Z,18.52
2023-05-10T13:11:02.260Z,18.55
2023-05-10T13:13:30.243Z,18.68
2023-05-10T13:15:59.291Z,18.86
2023-05-10T13:18:27.384Z,18.87
2023-05-10T13:20:56.727Z,18.80
2023-05-10T13:23:24.724Z,18.95
2023-05-10T13:25:53.083Z,19.07
2023-05-10T13:28:20.849Z,19.27
2023-05-10T13:30:48.973Z,19.39
2023-05-10T13:33:18.294Z,19.36
2023-05-10T13:35:46.257Z,19.51
2023-05-10T13:38:14.769Z,19.40
2023-05-10T13:40:42.684Z,19.41
2023-05-10T13:43:10.633Z,19.49
2023-05-10T13:45:38.411Z,19.55
2023-05-10T13:48:06.933Z,19.59
2023-05-10T13:50:36.065Z,19.62
2023-05-10T13:53:03.894Z,19.62
2023-05-10T13:55:31.674Z,19.69
2023-05-10T13:57:59.396Z,19.71
2023-05-10T14:00:27.184Z,19.69
2023-05-10T14:02:55.637Z,19.62
2023-05-10T14:05:26.263Z,19.59
2023-05-10T14:07:56.342Z,19.60
2023-05-10T14:10:24.249Z,19.64
2023-05-10T14:12:52.153Z,19.60
2023-05-10T14:15:20.060Z,19.59
2023-05-10T14:17:48.042Z,19.62
2023-05-10T14:20:16.040Z,19.60
2023-05-10T14:22:43.909Z,19.67
2023-05-10T14:25:13.122Z,19.75
2023-05-10T14:27:41.064Z,19.75
2023-05-10T14:30:10.023Z,19.79
2023-05-10T14:32:38.708Z,19.69
2023-05-10T14:35:08.986Z,19.59
2023-05-10T14:37:38.663Z,19.57
2023-05-10T14:40:08.230Z,19.65
2023-05-10T14:42:37.303Z,19.63
2023-05-10T14:45:05.746Z,19.62
2023-05-10T14:47:33.457Z,19.58
2023-05-10T14:50:01.166Z,19.56
2023-05-10T14:52:28.917Z,19.66
2023-05-10T14:54:56.815Z,19.66
2023-05-10T14:57:24.687Z,19.76
2023-05-10T14:59:54.072Z,19.76
2023-05-10T15:02:22.619Z,19.82
2023-05-10T15:04:50.975Z,19.89
2023-05-10T15:07:19.393Z,19.95
2023-05-10T15:09:47.642Z,19.99
2023-05-10T15:12:15.426Z,19.96
2023-05-10T15:14:43.133Z,19.96
2023-05-10T15:17:12.477Z,20.01
2023-05-10T15:19:40.276Z,20.03
2023-05-10T15:22:08.130Z,20.07
2023-05-10T15:24:36.106Z,20.13
2023-05-10T15:27:03.896Z,20.10
2023-05-10T15:29:32.512Z,20.16
2023-05-10T15:32:00.419Z,20.19
2023-05-10T15:34:29.768Z,20.20
2023-05-10T15:36:58.241Z,20.16
2023-05-10T15:39:26.025Z,20.12
2023-05-10T15:41:53.766Z,20.05
2023-05-10T15:44:21.530Z,20.04
2023-05-10T15:46:49.287Z,20.03
2023-05-10T15:49:17.088Z,19.92
2023-05-10T15:51:46.181Z,19.85
2023-05-10T15:54:13.980Z,19.78
2023-05-10T15:56:42.318Z,19.82
2023-05-10T15:59:11.569Z,19.81
2023-05-10T16:01:39.360Z,19.77
2023-05-10T16:04:07.117Z,19.70
2023-05-10T16:06:34.762Z,19.69
2023-05-10T16:09:03.958Z,19.70
2023-05-10T16:11:31.733Z,19.67
2023-05-10T16:13:59.499Z,19.65
2023-05-10T16:16:27.406Z,19.64
2023-05-10T16:18:55.248Z,19.62
2023-05-10T16:21:23.033Z,19.56
2023-05-10T16:23:50.837Z,19.55
2023-05-10T16:26:19.946Z,19.47
2023-05-10T16:28:48.117Z,19.42
2023-05-10T16:31:15.861Z,19.40
2023-05-10T16:33:43.664Z,19.39
2023-05-10T16:36:11.615Z,19.35
2023-05-10T16:38:39.344Z,19.19
2023-05-10T16:41:07.824Z,19.14
2023-05-10T16:43:37.728Z,19.20
2023-05-10T16:46:11.285Z,19.20
2023-05-10T16:48:39.192Z,19.16
2023-05-10T16:51:07.175Z,19.13
2023-05-10T16:53:35.036Z,19.05
2023-05-10T16:56:02.859Z,19.07
2023-05-10T16:58:30.682Z,19.08
2023-05-10T17:01:00.153Z,19.06
2023-05-10T17:03:28.014Z,18.93
2023-05-10T17:05:55.799Z,18.94
2023-05-10T17:08:24.019Z,18.93
2023-05-10T17:10:51.796Z,18.93
2023-05-10T17:13:19.536Z,18.93
2023-05-10T17:15:48.434Z,18.89
2023-05-10T17:18:22.276Z,18.86
2023-05-10T17:20:50.190Z,18.82
2023-05-10T17:23:17.928Z,18.78
2023-05-10T17:25:45.799Z,18.73
2023-05-10T17:28:13.739Z,18.68
2023-05-10T17:30:41.933Z,18.63
2023-05-10T17:33:09.735Z,18.56
2023-05-10T17:35:38.902Z,18.49
2023-05-10T17:38:06.928Z,18.46
2023-05-10T17:40:34.671Z,18.43
2023-05-10T17:43:02.501Z,18.41
2023-05-10T17:45:30.438Z,18.38
2023-05-10T17:47:58.200Z,18.34
2023-05-10T17:50:26.127Z,18.35
2023-05-10T17:52:55.226Z,18.36
2023-05-10T17:55:22.948Z,18.37
2023-05-10T17:57:51.937Z,18.36
2023-05-10T18:00:20.176Z,18.38
2023-05-10T18:02:47.944Z,18.36
2023-05-10T18:05:15.961Z,18.33
2023-05-10T18:07:44.072Z,18.29
2023-05-10T18:10:13.565Z,18.30
2023-05-10T18:12:41.580Z,18.29
2023-05-10T18:15:10.344Z,18.28
2023-05-10T18:17:38.271Z,18.23
2023-05-10T18:20:07.407Z,18.20
2023-05-10T18:22:35.312Z,18.13
2023-05-10T18:25:03.213Z,18.04
2023-05-10T18:27:32.400Z,18.00
2023-05-10T18:30:00.258Z,17.93
2023-05-10T18:32:28.153Z,17.90
2023-05-10T18:34:56.636Z,17.87
2023-05-10T18:37:24.649Z,17.82
2023-05-10T18:39:52.647Z,17.75
2023-05-10T18:42:20.590Z,17.69
2023-05-10T18:44:49.872Z,17.65
2023-05-10T18:47:17.775Z,17.58
2023-05-10T18:49:46.213Z,17.50
2023-05-10T18:52:16.024Z,17.43
2023-05-10T18:54:43.770Z,17.38
2023-05-10T18:57:12.391Z,17.27
2023-05-10T18:59:40.340Z,17.19
2023-05-10T19:02:09.911Z,17.09
2023-05-10T19:04:37.932Z,16.99
2023-05-10T19:07:05.939Z,16.91
2023-05-10T19:09:33.746Z,16.81
2023-05-10T19:12:01.625Z,16.74
2023-05-10T19:14:30.028Z,16.64
2023-05-10T19:16:57.853Z,16.58
2023-05-10T19:19:27.545Z,16.51
2023-05-10T19:21:57.058Z,16.44
2023-05-10T19:24:25.943Z,16.41
2023-05-10T19:26:55.436Z,16.32
2023-05-10T19:29:24.929Z,16.29
2023-05-10T19:31:53.573Z,16.24
2023-05-10T19:34:22.042Z,16.17
2023-05-10T19:36:51.488Z,16.09
2023-05-10T19:39:19.538Z,15.99
2023-05-10T19:41:49.392Z,15.97
2023-05-10T19:44:18.076Z,15.98
2023-05-10T19:46:47.167Z,15.99
2023-05-10T19:49:15.137Z,15.98
2023-05-10T19:51:43.062Z,15.97
2023-05-10T19:54:12.370Z,15.96
2023-05-10T19:56:40.225Z,15.94
2023-05-10T19:59:08.090Z,15.92
2023-05-10T20:01:36.134Z,15.90
2023-05-10T20:04:04.046Z,15.90
2023-05-10T20:06:31.911Z,15.86
2023-05-10T20:08:59.783Z,15.81
2023-05-10T20:11:28.894Z,15.77
2023-05-10T20:13:56.995Z,15.72
2023-05-10T20:16:26.608Z,15.70
2023-05-10T20:18:54.779Z,15.58
2023-05-10T20:21:23.945Z,15.55
2023-05-10T20:23:51.814Z,15.48
2023-05-10T20:26:19.554Z,15.46
2023-05-10T20:28:48.657Z,15.42
2023-05-10T20:31:16.489Z,15.37
2023-05-10T20:33:44.332Z,15.29
2023-05-10T20:36:12.224Z,15.23
2023-05-10T20:38:40.387Z,15.16
2023-05-10T20:41:08.223Z,15.12
2023-05-10T20:43:35.996Z,15.05
2023-05-10T20:46:06.606Z,15.00
2023-05-10T20:48:34.520Z,14.99
2023-05-10T20:51:03.215Z,14.91
2023-05-10T20:53:30.967Z,14.91
2023-05-10T20:55:58.704Z,14.90
2023-05-10T20:58:26.492Z,14.93
2023-05-10T21:00:54.224Z,14.89
2023-05-10T21:03:23.369Z,14.82
2023-05-10T21:05:51.129Z,14.77
2023-05-10T21:08:19.173Z,14.78
2023-05-10T21:10:47.483Z,14.69
2023-05-10T21:13:15.255Z,14.61
2023-05-10T21:15:42.964Z,14.56
2023-05-10T21:18:10.693Z,14.51
2023-05-10T21:20:39.796Z,14.47
2023-05-10T21:23:07.582Z,14.46
2023-05-10T21:25:35.668Z,14.38
2023-05-10T21:28:03.371Z,14.34
2023-05-10T21:30:31.208Z,14.31
2023-05-10T21:32:59.988Z,14.30
2023-05-10T21:35:27.864Z,14.26
2023-05-10T21:37:57.365Z,14.23
2023-05-10T21:40:25.090Z,14.21
2023-05-10T21:42:52.812Z,14.23
2023-05-10T21:45:21.109Z,14.21
2023-05-10T21:47:49.372Z,14.19
2023-05-10T21:50:17.645Z,14.20
2023-05-10T21:52:45.588Z,14.18
2023-05-10T21:55:14.658Z,14.17
2023-05-10T21:57:42.472Z,14.13
2023-05-10T22:00:12.460Z,14.08
2023-05-10T22:02:40.410Z,14.06
2023-05-10T22:05:08.933Z,14.03
2023-05-10T22:07:36.702Z,14.01
2023-05-10T22:10:05.616Z,13.97
2023-05-10T22:12:34.798Z,13.91
2023-05-10T22:17:33.596Z,13.86
2023-05-10T22:20:01.490Z,13.85
2023-05-10T22:22:29.238Z,13.82
2023-05-10T22:24:56.970Z,13.83
2023-05-10T22:27:24.750Z,13.80
2023-05-10T22:29:54.017Z,13.78
2023-05-10T22:32:21.801Z,13.74
2023-05-10T22:34:49.989Z,13.75
2023-05-10T22:37:18.056Z,13.71
2023-05-10T22:39:46.563Z,13.69
2023-05-10T22:42:14.431Z,13.67
2023-05-10T22:44:42.398Z,13.65
2023-05-10T22:47:11.703Z,13.67
2023-05-10T22:49:39.542Z,13.62
2023-05-10T22:52:07.408Z,13.57
2023-05-10T22:54:36.263Z,13.55
2023-05-10T22:57:04.614Z,13.54
2023-05-10T22:59:32.440Z,13.50
2023-05-10T23:02:02.728Z,13.48
2023-05-10T23:04:32.006Z,13.45
2023-05-10T23:06:59.911Z,13.43
2023-05-10T23:09:27.637Z,13.38
2023-05-10T23:11:55.829Z,13.35
2023-05-10T23:14:23.611Z,13.32
2023-05-10T23:16:51.338Z,13.27
2023-05-10T23:19:19.164Z,13.25
2023-05-10T23:21:48.410Z,13.22
2023-05-10T23:24:16.104Z,13.19
2023-05-10T23:26:46.312Z,13.18
2023-05-10T23:29:14.110Z,13.16
2023-05-10T23:31:45.706Z,13.14
2023-05-10T23:34:13.619Z,13.12
2023-05-10T23:36:41.566Z,13.09
2023-05-10T23:39:12.010Z,13.07
2023-05-10T23:41:39.689Z,13.04
2023-05-10T23:44:07.465Z,13.03
2023-05-10T23:46:35.200Z,12.96
2023-05-10T23:49:02.945Z,12.93
2023-05-10T23:51:30.707Z,12.86
2023-05-10T23:53:58.831Z,12.76
2023-05-10T23:56:27.984Z,12.76
2023-05-10T23:58:55.795Z,12.73
